sensor_id;sensor_type;location;lat;lon;timestamp;temperature;humidity
64638;HTU21D;51049;45.046;38.950;2023-04-01T00:00:58;3.55;62.73
64638;HTU21D;51049;45.046;38.950;2023-04-01T00:03:25;3.54;62.61
64638;HTU21D;51049;45.046;38.950;2023-04-01T00:05:56;3.52;62.59
64638;HTU21D;51049;45.046;38.950;2023-04-01T00:08:23;3.47;62.63
64638;HTU21D;51049;45.046;38.950;2023-04-01T00:10:50;3.46;62.69
64638;HTU21D;51049;45.046;38.950;2023-04-01T00:13:16;3.45;62.79
64638;HTU21D;51049;45.046;38.950;2023-04-01T00:15:45;3.43;62.78
64638;HTU21D;51049;45.046;38.950;2023-04-01T00:18:12;3.41;62.80
64638;HTU21D;51049;45.046;38.950;2023-04-01T00:20:43;3.39;62.83
64638;HTU21D;51049;45.046;38.950;2023-04-01T00:23:10;3.39;62.84
64638;HTU21D;51049;45.046;38.950;2023-04-01T00:25:36;3.36;62.89
64638;HTU21D;51049;45.046;38.950;2023-04-01T00:28:02;3.36;62.89
64638;HTU21D;51049;45.046;38.950;2023-04-01T00:30:28;3.33;62.91
64638;HTU21D;51049;45.046;38.950;2023-04-01T00:32:54;3.32;62.96
64638;HTU21D;51049;45.046;38.950;2023-04-01T00:35:20;3.28;62.94
64638;HTU21D;51049;45.046;38.950;2023-04-01T00:37:49;3.25;62.98
64638;HTU21D;51049;45.046;38.950;2023-04-01T00:40:40;3.20;63.04
64638;HTU21D;51049;45.046;38.950;2023-04-01T00:43:16;3.16;63.04
64638;HTU21D;51049;45.046;38.950;2023-04-01T00:45:46;3.09;63.04
64638;HTU21D;51049;45.046;38.950;2023-04-01T00:48:17;3.04;63.08
64638;HTU21D;51049;45.046;38.950;2023-04-01T00:50:48;2.98;63.13
64638;HTU21D;51049;45.046;38.950;2023-04-01T00:53:18;2.93;63.22
64638;HTU21D;51049;45.046;38.950;2023-04-01T00:56:13;2.93;63.25
64638;HTU21D;51049;45.046;38.950;2023-04-01T00:58:38;2.93;63.32
64638;HTU21D;51049;45.046;38.950;2023-04-01T01:01:06;2.95;63.18
64638;HTU21D;51049;45.046;38.950;2023-04-01T01:03:33;2.96;63.18
64638;HTU21D;51049;45.046;38.950;2023-04-01T01:11:54;2.96;63.10
64638;HTU21D;51049;45.046;38.950;2023-04-01T01:20:33;2.97;63.18
64638;HTU21D;51049;45.046;38.950;2023-04-01T01:36:47;3.03;63.14
64638;HTU21D;51049;45.046;38.950;2023-04-01T01:39:15;3.03;63.14
64638;HTU21D;51049;45.046;38.950;2023-04-01T01:41:43;3.01;63.18
64638;HTU21D;51049;45.046;38.950;2023-04-01T01:44:12;2.97;63.17
64638;HTU21D;51049;45.046;38.950;2023-04-01T01:46:42;2.93;63.21
64638;HTU21D;51049;45.046;38.950;2023-04-01T01:49:10;2.85;63.27
64638;HTU21D;51049;45.046;38.950;2023-04-01T01:51:37;2.79;63.34
64638;HTU21D;51049;45.046;38.950;2023-04-01T01:54:07;2.74;63.41
64638;HTU21D;51049;45.046;38.950;2023-04-01T01:56:38;2.68;63.50
64638;HTU21D;51049;45.046;38.950;2023-04-01T01:59:08;2.61;63.57
64638;HTU21D;51049;45.046;38.950;2023-04-01T02:01:41;2.58;63.61
64638;HTU21D;51049;45.046;38.950;2023-04-01T02:04:13;2.55;63.65
64638;HTU21D;51049;45.046;38.950;2023-04-01T02:06:46;2.51;63.69
64638;HTU21D;51049;45.046;38.950;2023-04-01T02:09:13;2.51;63.72
64638;HTU21D;51049;45.046;38.950;2023-04-01T02:14:20;2.52;63.69
64638;HTU21D;51049;45.046;38.950;2023-04-01T02:17:02;2.50;63.66
64638;HTU21D;51049;45.046;38.950;2023-04-01T02:19:36;2.47;63.69
64638;HTU21D;51049;45.046;38.950;2023-04-01T02:22:06;2.47;63.73
64638;HTU21D;51049;45.046;38.950;2023-04-01T02:24:35;2.45;63.76
64638;HTU21D;51049;45.046;38.950;2023-04-01T02:27:04;2.46;63.76
64638;HTU21D;51049;45.046;38.950;2023-04-01T02:29:31;2.47;63.81
64638;HTU21D;51049;45.046;38.950;2023-04-01T02:31:58;2.53;63.79
64638;HTU21D;51049;45.046;38.950;2023-04-01T02:34:26;2.56;63.78
64638;HTU21D;51049;45.046;38.950;2023-04-01T02:36:52;2.64;63.76
64638;HTU21D;51049;45.046;38.950;2023-04-01T02:39:20;2.70;63.70
64638;HTU21D;51049;45.046;38.950;2023-04-01T02:41:46;2.76;63.70
64638;HTU21D;51049;45.046;38.950;2023-04-01T02:44:14;2.81;63.65
64638;HTU21D;51049;45.046;38.950;2023-04-01T02:46:40;2.84;63.69
64638;HTU21D;51049;45.046;38.950;2023-04-01T02:49:07;2.88;63.67
64638;HTU21D;51049;45.046;38.950;2023-04-01T02:51:33;2.94;63.62
64638;HTU21D;51049;45.046;38.950;2023-04-01T02:54:00;2.97;63.65
64638;HTU21D;51049;45.046;38.950;2023-04-01T02:56:26;3.01;63.66
64638;HTU21D;51049;45.046;38.950;2023-04-01T02:58:53;3.04;63.63
64638;HTU21D;51049;45.046;38.950;2023-04-01T03:01:20;3.05;63.63
64638;HTU21D;51049;45.046;38.950;2023-04-01T03:03:47;3.06;63.64
64638;HTU21D;51049;45.046;38.950;2023-04-01T03:06:14;3.08;63.68
64638;HTU21D;51049;45.046;38.950;2023-04-01T03:08:41;3.10;63.72
64638;HTU21D;51049;45.046;38.950;2023-04-01T03:11:08;3.11;63.68
64638;HTU21D;51049;45.046;38.950;2023-04-01T03:13:35;3.13;63.68
64638;HTU21D;51049;45.046;38.950;2023-04-01T03:16:02;3.14;63.73
64638;HTU21D;51049;45.046;38.950;2023-04-01T03:18:28;3.16;63.70
64638;HTU21D;51049;45.046;38.950;2023-04-01T03:20:54;3.18;63.73
64638;HTU21D;51049;45.046;38.950;2023-04-01T03:23:20;3.19;63.76
64638;HTU21D;51049;45.046;38.950;2023-04-01T03:25:47;3.25;63.85
64638;HTU21D;51049;45.046;38.950;2023-04-01T03:28:14;3.30;63.88
64638;HTU21D;51049;45.046;38.950;2023-04-01T03:30:40;3.34;63.73
64638;HTU21D;51049;45.046;38.950;2023-04-01T03:33:06;3.35;63.73
64638;HTU21D;51049;45.046;38.950;2023-04-01T03:35:33;3.38;63.79
64638;HTU21D;51049;45.046;38.950;2023-04-01T03:38:04;3.43;63.80
64638;HTU21D;51049;45.046;38.950;2023-04-01T03:40:30;3.45;63.79
64638;HTU21D;51049;45.046;38.950;2023-04-01T03:42:58;3.49;63.74
64638;HTU21D;51049;45.046;38.950;2023-04-01T03:45:28;3.54;63.81
64638;HTU21D;51049;45.046;38.950;2023-04-01T03:47:57;3.62;63.75
64638;HTU21D;51049;45.046;38.950;2023-04-01T03:50:24;3.65;63.76
64638;HTU21D;51049;45.046;38.950;2023-04-01T03:52:50;3.73;63.72
64638;HTU21D;51049;45.046;38.950;2023-04-01T03:55:19;3.77;63.72
64638;HTU21D;51049;45.046;38.950;2023-04-01T03:57:46;3.84;63.71
64638;HTU21D;51049;45.046;38.950;2023-04-01T04:00:17;3.92;63.68
64638;HTU21D;51049;45.046;38.950;2023-04-01T04:02:47;4.00;63.74
64638;HTU21D;51049;45.046;38.950;2023-04-01T04:05:27;4.08;63.66
64638;HTU21D;51049;45.046;38.950;2023-04-01T04:07:53;4.19;63.66
64638;HTU21D;51049;45.046;38.950;2023-04-01T04:10:23;4.30;63.63
64638;HTU21D;51049;45.046;38.950;2023-04-01T04:12:53;4.39;63.63
64638;HTU21D;51049;45.046;38.950;2023-04-01T04:15:30;4.51;63.65
64638;HTU21D;51049;45.046;38.950;2023-04-01T04:17:59;4.62;63.79
64638;HTU21D;51049;45.046;38.950;2023-04-01T04:20:25;4.75;64.03
64638;HTU21D;51049;45.046;38.950;2023-04-01T04:22:52;4.87;64.06
64638;HTU21D;51049;45.046;38.950;2023-04-01T04:25:20;5.00;64.08
64638;HTU21D;51049;45.046;38.950;2023-04-01T04:27:46;5.13;64.25
64638;HTU21D;51049;45.046;38.950;2023-04-01T04:30:20;5.30;64.53
64638;HTU21D;51049;45.046;38.950;2023-04-01T04:32:46;5.48;64.92
64638;HTU21D;51049;45.046;38.950;2023-04-01T04:35:12;5.66;65.18
64638;HTU21D;51049;45.046;38.950;2023-04-01T04:37:42;5.82;65.21
64638;HTU21D;51049;45.046;38.950;2023-04-01T04:40:11;5.98;64.95
64638;HTU21D;51049;45.046;38.950;2023-04-01T04:42:39;6.12;64.68
64638;HTU21D;51049;45.046;38.950;2023-04-01T04:45:22;6.24;64.29
64638;HTU21D;51049;45.046;38.950;2023-04-01T04:47:53;6.35;64.00
64638;HTU21D;51049;45.046;38.950;2023-04-01T04:50:27;6.43;63.72
64638;HTU21D;51049;45.046;38.950;2023-04-01T04:52:53;6.51;63.47
64638;HTU21D;51049;45.046;38.950;2023-04-01T04:55:33;6.57;63.31
64638;HTU21D;51049;45.046;38.950;2023-04-01T04:58:29;6.64;63.18
64638;HTU21D;51049;45.046;38.950;2023-04-01T05:00:56;6.70;63.08
64638;HTU21D;51049;45.046;38.950;2023-04-01T05:03:27;6.78;62.95
64638;HTU21D;51049;45.046;38.950;2023-04-01T05:05:53;6.84;62.86
64638;HTU21D;51049;45.046;38.950;2023-04-01T05:08:19;6.90;62.79
64638;HTU21D;51049;45.046;38.950;2023-04-01T05:10:49;6.97;62.77
64638;HTU21D;51049;45.046;38.950;2023-04-01T05:13:15;7.07;62.68
64638;HTU21D;51049;45.046;38.950;2023-04-01T05:15:48;7.14;62.61
64638;HTU21D;51049;45.046;38.950;2023-04-01T05:18:15;7.22;62.56
64638;HTU21D;51049;45.046;38.950;2023-04-01T05:20:49;7.26;62.41
64638;HTU21D;51049;45.046;38.950;2023-04-01T05:23:20;7.30;62.32
64638;HTU21D;51049;45.046;38.950;2023-04-01T05:26:02;7.37;62.41
64638;HTU21D;51049;45.046;38.950;2023-04-01T05:28:38;7.47;62.32
64638;HTU21D;51049;45.046;38.950;2023-04-01T05:31:47;7.59;62.26
64638;HTU21D;51049;45.046;38.950;2023-04-01T05:34:14;7.67;62.18
64638;HTU21D;51049;45.046;38.950;2023-04-01T05:36:40;7.74;62.18
64638;HTU21D;51049;45.046;38.950;2023-04-01T05:39:07;7.81;61.99
64638;HTU21D;51049;45.046;38.950;2023-04-01T05:41:37;7.89;61.96
64638;HTU21D;51049;45.046;38.950;2023-04-01T05:44:05;7.98;61.83
64638;HTU21D;51049;45.046;38.950;2023-04-01T05:46:40;8.03;61.86
64638;HTU21D;51049;45.046;38.950;2023-04-01T05:49:26;8.12;61.80
64638;HTU21D;51049;45.046;38.950;2023-04-01T05:51:52;8.18;61.76
64638;HTU21D;51049;45.046;38.950;2023-04-01T05:54:19;8.26;61.79
64638;HTU21D;51049;45.046;38.950;2023-04-01T05:56:49;8.35;61.65
64638;HTU21D;51049;45.046;38.950;2023-04-01T05:59:16;8.45;61.57
64638;HTU21D;51049;45.046;38.950;2023-04-01T06:01:46;8.55;61.47
64638;HTU21D;51049;45.046;38.950;2023-04-01T06:04:15;8.60;61.37
64638;HTU21D;51049;45.046;38.950;2023-04-01T06:06:43;8.66;61.22
64638;HTU21D;51049;45.046;38.950;2023-04-01T06:09:35;8.78;61.23
64638;HTU21D;51049;45.046;38.950;2023-04-01T06:12:16;8.90;61.23
64638;HTU21D;51049;45.046;38.950;2023-04-01T06:15:13;9.02;61.12
64638;HTU21D;51049;45.046;38.950;2023-04-01T06:23:15;9.39;60.71
64638;HTU21D;51049;45.046;38.950;2023-04-01T06:28:46;9.49;60.78
64638;HTU21D;51049;45.046;38.950;2023-04-01T06:31:46;9.60;60.72
64638;HTU21D;51049;45.046;38.950;2023-04-01T06:50:21;10.05;60.31
64638;HTU21D;51049;45.046;38.950;2023-04-01T07:00:40;10.37;60.35
64638;HTU21D;51049;45.046;38.950;2023-04-01T07:03:34;10.50;60.35
64638;HTU21D;51049;45.046;38.950;2023-04-01T07:06:06;10.56;60.35
64638;HTU21D;51049;45.046;38.950;2023-04-01T07:08:42;10.69;60.36
64638;HTU21D;51049;45.046;38.950;2023-04-01T07:11:17;10.80;60.20
64638;HTU21D;51049;45.046;38.950;2023-04-01T07:14:14;10.88;60.06
64638;HTU21D;51049;45.046;38.950;2023-04-01T07:16:53;10.99;60.00
64638;HTU21D;51049;45.046;38.950;2023-04-01T07:19:31;11.09;59.74
64638;HTU21D;51049;45.046;38.950;2023-04-01T07:22:20;11.17;59.56
64638;HTU21D;51049;45.046;38.950;2023-04-01T07:25:21;11.18;59.39
64638;HTU21D;51049;45.046;38.950;2023-04-01T07:28:05;11.24;59.59
64638;HTU21D;51049;45.046;38.950;2023-04-01T07:33:37;11.46;59.32
64638;HTU21D;51049;45.046;38.950;2023-04-01T07:36:33;11.61;59.26
64638;HTU21D;51049;45.046;38.950;2023-04-01T07:47:22;11.98;58.58
64638;HTU21D;51049;45.046;38.950;2023-04-01T07:50:11;12.06;58.56
64638;HTU21D;51049;45.046;38.950;2023-04-01T07:55:52;12.37;57.92
64638;HTU21D;51049;45.046;38.950;2023-04-01T07:58:29;12.44;57.87
64638;HTU21D;51049;45.046;38.950;2023-04-01T08:07:17;12.79;57.74
64638;HTU21D;51049;45.046;38.950;2023-04-01T08:13:12;12.93;57.23
64638;HTU21D;51049;45.046;38.950;2023-04-01T08:16:38;12.90;56.81
64638;HTU21D;51049;45.046;38.950;2023-04-01T08:25:19;13.20;56.80
64638;HTU21D;51049;45.046;38.950;2023-04-01T08:27:51;13.33;56.60
64638;HTU21D;51049;45.046;38.950;2023-04-01T08:30:47;13.40;55.58
64638;HTU21D;51049;45.046;38.950;2023-04-01T08:33:24;13.41;56.04
64638;HTU21D;51049;45.046;38.950;2023-04-01T08:39:20;13.50;55.79
64638;HTU21D;51049;45.046;38.950;2023-04-01T08:42:11;13.55;55.34
64638;HTU21D;51049;45.046;38.950;2023-04-01T08:45:18;13.61;55.02
64638;HTU21D;51049;45.046;38.950;2023-04-01T08:48:01;13.64;55.54
64638;HTU21D;51049;45.046;38.950;2023-04-01T08:56:15;14.05;55.07
64638;HTU21D;51049;45.046;38.950;2023-04-01T09:01:49;14.28;54.91
64638;HTU21D;51049;45.046;38.950;2023-04-01T09:05:18;14.34;54.71
64638;HTU21D;51049;45.046;38.950;2023-04-01T09:15:42;14.44;53.87
64638;HTU21D;51049;45.046;38.950;2023-04-01T09:26:48;14.87;52.65
64638;HTU21D;51049;45.046;38.950;2023-04-01T09:38:11;15.13;52.03
64638;HTU21D;51049;45.046;38.950;2023-04-01T09:41:41;15.24;52.39
64638;HTU21D;51049;45.046;38.950;2023-04-01T09:45:20;15.44;52.61
64638;HTU21D;51049;45.046;38.950;2023-04-01T09:51:05;15.74;52.07
64638;HTU21D;51049;45.046;38.950;2023-04-01T10:30:48;16.21;49.56
64638;HTU21D;51049;45.046;38.950;2023-04-01T10:33:47;16.13;48.98
64638;HTU21D;51049;45.046;38.950;2023-04-01T10:51:01;16.22;46.95
64638;HTU21D;51049;45.046;38.950;2023-04-01T11:15:26;16.89;48.05
64638;HTU21D;51049;45.046;38.950;2023-04-01T11:39:24;17.11;46.08
64638;HTU21D;51049;45.046;38.950;2023-04-01T11:51:31;17.30;45.98
64638;HTU21D;51049;45.046;38.950;2023-04-01T12:06:44;19.61;41.26
64638;HTU21D;51049;45.046;38.950;2023-04-01T13:19:31;25.38;34.59
64638;HTU21D;51049;45.046;38.950;2023-04-01T13:56:33;24.68;31.67
64638;HTU21D;51049;45.046;38.950;2023-04-01T14:13:29;24.00;31.81
64638;HTU21D;51049;45.046;38.950;2023-04-01T14:16:26;23.83;31.61
64638;HTU21D;51049;45.046;38.950;2023-04-01T14:22:25;23.47;31.87
64638;HTU21D;51049;45.046;38.950;2023-04-01T14:28:37;22.90;32.41
64638;HTU21D;51049;45.046;38.950;2023-04-01T14:37:39;22.38;32.20
64638;HTU21D;51049;45.046;38.950;2023-04-01T14:50:21;21.23;32.65
64638;HTU21D;51049;45.046;38.950;2023-04-01T14:53:38;20.80;32.65
64638;HTU21D;51049;45.046;38.950;2023-04-01T14:56:50;20.54;32.76
64638;HTU21D;51049;45.046;38.950;2023-04-01T16:17:54;11.01;40.43
64638;HTU21D;51049;45.046;38.950;2023-04-01T16:20:44;10.92;40.46
64638;HTU21D;51049;45.046;38.950;2023-04-01T16:23:26;10.83;40.57
64638;HTU21D;51049;45.046;38.950;2023-04-01T16:26:29;10.73;40.65
64638;HTU21D;51049;45.046;38.950;2023-04-01T16:29:33;10.65;40.72
64638;HTU21D;51049;45.046;38.950;2023-04-01T16:48:00;10.22;41.18
64638;HTU21D;51049;45.046;38.950;2023-04-01T16:51:00;10.20;41.25
64638;HTU21D;51049;45.046;38.950;2023-04-01T16:53:46;10.12;41.32
64638;HTU21D;51049;45.046;38.950;2023-04-01T16:56:24;10.06;41.42
64638;HTU21D;51049;45.046;38.950;2023-04-01T17:02:38;9.96;41.52
64638;HTU21D;51049;45.046;38.950;2023-04-01T17:15:07;9.77;41.75
64638;HTU21D;51049;45.046;38.950;2023-04-01T17:21:23;9.60;41.97
64638;HTU21D;51049;45.046;38.950;2023-04-01T18:25:41;8.48;43.47
64638;HTU21D;51049;45.046;38.950;2023-04-01T18:38:55;8.24;43.76
64638;HTU21D;51049;45.046;38.950;2023-04-01T18:47:56;7.92;44.14
64638;HTU21D;51049;45.046;38.950;2023-04-01T18:54:08;7.77;44.35
64638;HTU21D;51049;45.046;38.950;2023-04-01T18:56:49;7.72;44.37
64638;HTU21D;51049;45.046;38.950;2023-04-01T18:59:37;7.65;44.45
64638;HTU21D;51049;45.046;38.950;2023-04-01T19:02:38;7.61;44.51
64638;HTU21D;51049;45.046;38.950;2023-04-01T19:05:46;7.57;44.58
64638;HTU21D;51049;45.046;38.950;2023-04-01T19:08:39;7.53;44.61
64638;HTU21D;51049;45.046;38.950;2023-04-01T19:11:35;7.50;44.67
64638;HTU21D;51049;45.046;38.950;2023-04-01T19:21:19;7.48;44.70
64638;HTU21D;51049;45.046;38.950;2023-04-01T19:46:58;7.35;44.88
64638;HTU21D;51049;45.046;38.950;2023-04-01T19:49:48;7.32;44.95
64638;HTU21D;51049;45.046;38.950;2023-04-01T19:52:41;7.32;44.98
64638;HTU21D;51049;45.046;38.950;2023-04-01T19:58:56;7.30;45.04
64638;HTU21D;51049;45.046;38.950;2023-04-01T20:11:16;7.15;45.19
64638;HTU21D;51049;45.046;38.950;2023-04-01T20:27:40;6.85;45.57
64638;HTU21D;51049;45.046;38.950;2023-04-01T20:56:45;6.60;45.87
64638;HTU21D;51049;45.046;38.950;2023-04-01T22:16:23;5.54;47.01
64638;HTU21D;51049;45.046;38.950;2023-04-01T22:19:10;5.50;47.07
64638;HTU21D;51049;45.046;38.950;2023-04-01T22:21:55;5.49;47.13
64638;HTU21D;51049;45.046;38.950;2023-04-01T22:28:45;5.48;47.23
64638;HTU21D;51049;45.046;38.950;2023-04-01T22:31:11;5.51;47.22
64638;HTU21D;51049;45.046;38.950;2023-04-01T22:37:18;5.54;47.29
64638;HTU21D;51049;45.046;38.950;2023-04-01T22:40:21;5.60;47.23
64638;HTU21D;51049;45.046;38.950;2023-04-01T22:43:05;5.62;47.22
64638;HTU21D;51049;45.046;38.950;2023-04-01T22:54:36;5.54;47.38
64638;HTU21D;51049;45.046;38.950;2023-04-01T23:00:33;5.48;47.50
64638;HTU21D;51049;45.046;38.950;2023-04-01T23:05:56;5.41;47.65
64638;HTU21D;51049;45.046;38.950;2023-04-01T23:08:49;5.41;47.69
64638;HTU21D;51049;45.046;38.950;2023-04-01T23:11:39;5.37;47.70
64638;HTU21D;51049;45.046;38.950;2023-04-01T23:18:12;5.31;47.86
64638;HTU21D;51049;45.046;38.950;2023-04-01T23:29:22;5.37;47.89
64638;HTU21D;51049;45.046;38.950;2023-04-01T23:32:03;5.39;47.87
64638;HTU21D;51049;45.046;38.950;2023-04-01T23:34:36;5.39;47.88
64638;HTU21D;51049;45.046;38.950;2023-04-01T23:37:28;5.35;47.96
64638;HTU21D;51049;45.046;38.950;2023-04-01T23:40:39;5.34;47.97
64638;HTU21D;51049;45.046;38.950;2023-04-01T23:43:38;5.30;48.05
64638;HTU21D;51049;45.046;38.950;2023-04-01T23:46:11;5.25;48.07
64638;HTU21D;51049;45.046;38.950;2023-04-01T23:48:51;5.20;48.17
64638;HTU21D;51049;45.046;38.950;2023-04-01T23:51:49;5.12;48.31
64638;HTU21D;51049;45.046;38.950;2023-04-01T23:57:39;4.98;48.46
